sensor_id;sensor_type;location;lat;lon;timestamp;P1;durP1;ratioP1;P2;durP2;ratioP2
22248;SDS011;67538;52.180;5.646;2023-06-24T00:00:38;19.88;;;12.95;;
22248;SDS011;67538;52.180;5.646;2023-06-24T00:03:07;17.30;;;11.60;;
22248;SDS011;67538;52.180;5.646;2023-06-24T00:05:34;18.53;;;12.67;;
22248;SDS011;67538;52.180;5.646;2023-06-24T00:08:01;15.98;;;11.77;;
22248;SDS011;67538;52.180;5.646;2023-06-24T00:10:32;13.38;;;11.40;;
22248;SDS011;67538;52.180;5.646;2023-06-24T00:12:59;16.33;;;11.23;;
22248;SDS011;67538;52.180;5.646;2023-06-24T00:15:27;14.73;;;10.67;;
22248;SDS011;67538;52.180;5.646;2023-06-24T00:17:54;12.05;;;10.07;;
22248;SDS011;67538;52.180;5.646;2023-06-24T00:20:32;12.73;;;10.40;;
22248;SDS011;67538;52.180;5.646;2023-06-24T00:22:59;13.73;;;11.02;;
22248;SDS011;67538;52.180;5.646;2023-06-24T00:25:26;13.63;;;10.80;;
22248;SDS011;67538;52.180;5.646;2023-06-24T00:27:53;15.38;;;11.65;;
22248;SDS011;67538;52.180;5.646;2023-06-24T00:30:21;15.30;;;11.75;;
22248;SDS011;67538;52.180;5.646;2023-06-24T00:32:48;15.70;;;11.68;;
22248;SDS011;67538;52.180;5.646;2023-06-24T00:35:17;16.40;;;11.90;;
22248;SDS011;67538;52.180;5.646;2023-06-24T00:37:46;15.20;;;11.70;;
22248;SDS011;67538;52.180;5.646;2023-06-24T00:40:13;16.17;;;11.87;;
22248;SDS011;67538;52.180;5.646;2023-06-24T00:42:42;16.77;;;12.07;;
22248;SDS011;67538;52.180;5.646;2023-06-24T00:45:11;15.43;;;11.23;;
22248;SDS011;67538;52.180;5.646;2023-06-24T00:47:39;15.33;;;11.40;;
22248;SDS011;67538;52.180;5.646;2023-06-24T00:50:07;13.85;;;10.88;;
22248;SDS011;67538;52.180;5.646;2023-06-24T00:52:37;15.50;;;11.20;;
22248;SDS011;67538;52.180;5.646;2023-06-24T00:55:09;18.42;;;11.77;;
22248;SDS011;67538;52.180;5.646;2023-06-24T00:57:38;13.00;;;11.50;;
22248;SDS011;67538;52.180;5.646;2023-06-24T01:00:06;15.20;;;11.57;;
22248;SDS011;67538;52.180;5.646;2023-06-24T01:02:38;13.77;;;11.47;;
22248;SDS011;67538;52.180;5.646;2023-06-24T01:05:07;15.02;;;12.27;;
22248;SDS011;67538;52.180;5.646;2023-06-24T01:07:36;15.77;;;12.10;;
22248;SDS011;67538;52.180;5.646;2023-06-24T01:10:04;17.70;;;12.02;;
22248;SDS011;67538;52.180;5.646;2023-06-24T01:12:34;14.10;;;11.70;;
22248;SDS011;67538;52.180;5.646;2023-06-24T01:15:03;14.45;;;11.55;;
22248;SDS011;67538;52.180;5.646;2023-06-24T01:17:33;18.05;;;12.73;;
22248;SDS011;67538;52.180;5.646;2023-06-24T01:20:05;17.13;;;12.67;;
22248;SDS011;67538;52.180;5.646;2023-06-24T01:22:43;16.08;;;12.98;;
22248;SDS011;67538;52.180;5.646;2023-06-24T01:25:42;19.75;;;15.15;;
22248;SDS011;67538;52.180;5.646;2023-06-24T01:28:27;16.37;;;13.83;;
22248;SDS011;67538;52.180;5.646;2023-06-24T01:34:02;17.55;;;13.00;;
22248;SDS011;67538;52.180;5.646;2023-06-24T01:36:37;15.68;;;12.48;;
22248;SDS011;67538;52.180;5.646;2023-06-24T01:39:09;20.70;;;14.65;;
22248;SDS011;67538;52.180;5.646;2023-06-24T01:41:40;18.02;;;14.13;;
22248;SDS011;67538;52.180;5.646;2023-06-24T01:44:09;17.77;;;13.82;;
22248;SDS011;67538;52.180;5.646;2023-06-24T01:46:41;15.38;;;12.77;;
22248;SDS011;67538;52.180;5.646;2023-06-24T01:49:13;15.35;;;12.60;;
22248;SDS011;67538;52.180;5.646;2023-06-24T01:51:42;16.92;;;12.77;;
22248;SDS011;67538;52.180;5.646;2023-06-24T01:54:13;14.05;;;12.20;;
22248;SDS011;67538;52.180;5.646;2023-06-24T01:56:44;18.83;;;13.35;;
22248;SDS011;67538;52.180;5.646;2023-06-24T01:59:14;20.55;;;14.27;;
22248;SDS011;67538;52.180;5.646;2023-06-24T02:01:45;17.50;;;13.68;;
22248;SDS011;67538;52.180;5.646;2023-06-24T02:04:12;19.15;;;14.48;;
22248;SDS011;67538;52.180;5.646;2023-06-24T02:06:41;17.75;;;14.02;;
22248;SDS011;67538;52.180;5.646;2023-06-24T02:09:10;15.67;;;12.33;;
22248;SDS011;67538;52.180;5.646;2023-06-24T02:11:37;13.98;;;11.63;;
22248;SDS011;67538;52.180;5.646;2023-06-24T02:14:05;17.63;;;12.35;;
22248;SDS011;67538;52.180;5.646;2023-06-24T02:16:34;16.88;;;13.02;;
22248;SDS011;67538;52.180;5.646;2023-06-24T02:19:04;17.83;;;12.98;;
22248;SDS011;67538;52.180;5.646;2023-06-24T02:21:33;16.65;;;13.30;;
22248;SDS011;67538;52.180;5.646;2023-06-24T02:24:01;17.85;;;12.93;;
22248;SDS011;67538;52.180;5.646;2023-06-24T02:26:30;19.02;;;13.30;;
22248;SDS011;67538;52.180;5.646;2023-06-24T02:28:57;15.75;;;12.07;;
22248;SDS011;67538;52.180;5.646;2023-06-24T02:31:25;15.48;;;12.80;;
22248;SDS011;67538;52.180;5.646;2023-06-24T02:33:52;17.13;;;13.02;;
22248;SDS011;67538;52.180;5.646;2023-06-24T02:36:21;19.80;;;13.07;;
22248;SDS011;67538;52.180;5.646;2023-06-24T02:38:48;16.92;;;12.73;;
22248;SDS011;67538;52.180;5.646;2023-06-24T02:41:15;18.05;;;12.77;;
22248;SDS011;67538;52.180;5.646;2023-06-24T02:43:42;18.50;;;12.82;;
22248;SDS011;67538;52.180;5.646;2023-06-24T02:46:10;21.15;;;13.35;;
22248;SDS011;67538;52.180;5.646;2023-06-24T02:48:37;18.45;;;13.30;;
22248;SDS011;67538;52.180;5.646;2023-06-24T02:51:06;19.98;;;12.90;;
22248;SDS011;67538;52.180;5.646;2023-06-24T02:53:37;18.83;;;13.50;;
22248;SDS011;67538;52.180;5.646;2023-06-24T02:56:05;16.42;;;12.98;;
22248;SDS011;67538;52.180;5.646;2023-06-24T02:58:35;21.13;;;13.00;;
22248;SDS011;67538;52.180;5.646;2023-06-24T03:01:03;20.77;;;12.98;;
22248;SDS011;67538;52.180;5.646;2023-06-24T03:03:32;16.70;;;12.00;;
22248;SDS011;67538;52.180;5.646;2023-06-24T03:05:59;15.48;;;11.95;;
22248;SDS011;67538;52.180;5.646;2023-06-24T03:08:27;19.07;;;12.33;;
22248;SDS011;67538;52.180;5.646;2023-06-24T03:10:56;17.13;;;12.82;;
22248;SDS011;67538;52.180;5.646;2023-06-24T03:13:24;18.35;;;12.55;;
22248;SDS011;67538;52.180;5.646;2023-06-24T03:15:52;17.17;;;12.93;;
22248;SDS011;67538;52.180;5.646;2023-06-24T03:18:19;17.57;;;12.63;;
22248;SDS011;67538;52.180;5.646;2023-06-24T03:20:46;15.85;;;12.70;;
22248;SDS011;67538;52.180;5.646;2023-06-24T03:23:13;15.98;;;12.35;;
22248;SDS011;67538;52.180;5.646;2023-06-24T03:25:41;20.33;;;12.70;;
22248;SDS011;67538;52.180;5.646;2023-06-24T03:28:09;17.43;;;11.63;;
22248;SDS011;67538;52.180;5.646;2023-06-24T03:30:36;20.95;;;12.48;;
22248;SDS011;67538;52.180;5.646;2023-06-24T03:33:04;18.27;;;12.10;;
22248;SDS011;67538;52.180;5.646;2023-06-24T03:35:31;16.77;;;12.40;;
22248;SDS011;67538;52.180;5.646;2023-06-24T03:37:58;20.02;;;12.95;;
22248;SDS011;67538;52.180;5.646;2023-06-24T03:40:25;16.70;;;12.70;;
22248;SDS011;67538;52.180;5.646;2023-06-24T03:42:52;17.97;;;12.40;;
22248;SDS011;67538;52.180;5.646;2023-06-24T03:45:21;15.10;;;11.82;;
22248;SDS011;67538;52.180;5.646;2023-06-24T03:47:48;16.15;;;12.32;;
22248;SDS011;67538;52.180;5.646;2023-06-24T03:50:15;17.80;;;12.35;;
22248;SDS011;67538;52.180;5.646;2023-06-24T03:52:42;18.93;;;13.00;;
22248;SDS011;67538;52.180;5.646;2023-06-24T03:55:10;17.55;;;12.30;;
22248;SDS011;67538;52.180;5.646;2023-06-24T03:57:37;15.25;;;11.70;;
22248;SDS011;67538;52.180;5.646;2023-06-24T04:00:05;18.40;;;12.53;;
22248;SDS011;67538;52.180;5.646;2023-06-24T04:02:41;20.00;;;12.25;;
22248;SDS011;67538;52.180;5.646;2023-06-24T04:05:08;17.13;;;12.68;;
22248;SDS011;67538;52.180;5.646;2023-06-24T04:07:36;18.13;;;12.38;;
22248;SDS011;67538;52.180;5.646;2023-06-24T04:10:03;16.23;;;12.02;;
22248;SDS011;67538;52.180;5.646;2023-06-24T04:12:33;16.90;;;12.68;;
22248;SDS011;67538;52.180;5.646;2023-06-24T04:15:01;16.20;;;12.65;;
22248;SDS011;67538;52.180;5.646;2023-06-24T04:17:29;16.23;;;12.25;;
22248;SDS011;67538;52.180;5.646;2023-06-24T04:19:58;15.80;;;12.57;;
22248;SDS011;67538;52.180;5.646;2023-06-24T04:22:28;16.27;;;11.70;;
22248;SDS011;67538;52.180;5.646;2023-06-24T04:24:55;14.07;;;11.85;;
22248;SDS011;67538;52.180;5.646;2023-06-24T04:27:22;18.48;;;13.55;;
22248;SDS011;67538;52.180;5.646;2023-06-24T04:29:49;16.48;;;12.10;;
22248;SDS011;67538;52.180;5.646;2023-06-24T04:32:16;17.63;;;12.95;;
22248;SDS011;67538;52.180;5.646;2023-06-24T04:34:44;16.25;;;12.80;;
22248;SDS011;67538;52.180;5.646;2023-06-24T04:37:12;21.70;;;14.65;;
22248;SDS011;67538;52.180;5.646;2023-06-24T04:39:39;23.80;;;15.05;;
22248;SDS011;67538;52.180;5.646;2023-06-24T04:42:06;20.93;;;14.00;;
22248;SDS011;67538;52.180;5.646;2023-06-24T04:44:33;20.40;;;13.80;;
22248;SDS011;67538;52.180;5.646;2023-06-24T04:47:01;16.67;;;13.02;;
22248;SDS011;67538;52.180;5.646;2023-06-24T04:49:28;19.17;;;13.60;;
22248;SDS011;67538;52.180;5.646;2023-06-24T04:51:55;18.70;;;14.20;;
22248;SDS011;67538;52.180;5.646;2023-06-24T04:54:24;19.15;;;14.38;;
22248;SDS011;67538;52.180;5.646;2023-06-24T04:56:51;20.77;;;14.88;;
22248;SDS011;67538;52.180;5.646;2023-06-24T04:59:20;20.63;;;15.53;;
22248;SDS011;67538;52.180;5.646;2023-06-24T05:01:47;21.55;;;15.60;;
22248;SDS011;67538;52.180;5.646;2023-06-24T05:04:14;27.35;;;15.45;;
22248;SDS011;67538;52.180;5.646;2023-06-24T05:06:41;24.60;;;15.82;;
22248;SDS011;67538;52.180;5.646;2023-06-24T05:09:09;19.15;;;14.90;;
22248;SDS011;67538;52.180;5.646;2023-06-24T05:11:40;23.67;;;16.00;;
22248;SDS011;67538;52.180;5.646;2023-06-24T05:14:07;26.27;;;15.65;;
22248;SDS011;67538;52.180;5.646;2023-06-24T05:16:34;24.00;;;15.57;;
22248;SDS011;67538;52.180;5.646;2023-06-24T05:19:02;22.93;;;15.90;;
22248;SDS011;67538;52.180;5.646;2023-06-24T05:21:29;21.13;;;16.25;;
22248;SDS011;67538;52.180;5.646;2023-06-24T05:23:56;33.90;;;17.45;;
22248;SDS011;67538;52.180;5.646;2023-06-24T05:26:23;31.73;;;18.05;;
22248;SDS011;67538;52.180;5.646;2023-06-24T05:28:51;29.27;;;18.27;;
22248;SDS011;67538;52.180;5.646;2023-06-24T05:31:19;31.42;;;18.42;;
22248;SDS011;67538;52.180;5.646;2023-06-24T05:33:46;31.67;;;18.48;;
22248;SDS011;67538;52.180;5.646;2023-06-24T05:36:13;28.38;;;18.55;;
22248;SDS011;67538;52.180;5.646;2023-06-24T05:38:40;35.90;;;21.87;;
22248;SDS011;67538;52.180;5.646;2023-06-24T05:41:08;26.30;;;17.67;;
22248;SDS011;67538;52.180;5.646;2023-06-24T05:43:35;27.13;;;17.20;;
22248;SDS011;67538;52.180;5.646;2023-06-24T05:46:03;23.13;;;15.57;;
22248;SDS011;67538;52.180;5.646;2023-06-24T05:48:30;21.58;;;13.50;;
22248;SDS011;67538;52.180;5.646;2023-06-24T05:50:57;20.93;;;12.43;;
22248;SDS011;67538;52.180;5.646;2023-06-24T05:53:25;16.25;;;10.35;;
22248;SDS011;67538;52.180;5.646;2023-06-24T05:55:52;21.58;;;10.48;;
22248;SDS011;67538;52.180;5.646;2023-06-24T05:58:19;18.45;;;10.02;;
22248;SDS011;67538;52.180;5.646;2023-06-24T06:00:46;16.98;;;9.32;;
22248;SDS011;67538;52.180;5.646;2023-06-24T06:03:15;15.43;;;9.52;;
22248;SDS011;67538;52.180;5.646;2023-06-24T06:05:42;13.65;;;8.68;;
22248;SDS011;67538;52.180;5.646;2023-06-24T06:08:09;15.00;;;8.25;;
22248;SDS011;67538;52.180;5.646;2023-06-24T06:10:36;13.40;;;8.43;;
22248;SDS011;67538;52.180;5.646;2023-06-24T06:13:03;15.52;;;8.15;;
22248;SDS011;67538;52.180;5.646;2023-06-24T06:15:30;13.73;;;7.88;;
22248;SDS011;67538;52.180;5.646;2023-06-24T06:17:57;16.23;;;8.30;;
22248;SDS011;67538;52.180;5.646;2023-06-24T06:20:26;14.32;;;8.48;;
22248;SDS011;67538;52.180;5.646;2023-06-24T06:22:53;11.03;;;7.67;;
22248;SDS011;67538;52.180;5.646;2023-06-24T06:25:20;15.25;;;7.65;;
22248;SDS011;67538;52.180;5.646;2023-06-24T06:27:47;15.85;;;7.97;;
22248;SDS011;67538;52.180;5.646;2023-06-24T06:30:14;16.90;;;8.20;;
22248;SDS011;67538;52.180;5.646;2023-06-24T06:32:42;17.90;;;8.32;;
22248;SDS011;67538;52.180;5.646;2023-06-24T06:35:10;14.63;;;7.80;;
22248;SDS011;67538;52.180;5.646;2023-06-24T06:37:38;13.27;;;7.40;;
22248;SDS011;67538;52.180;5.646;2023-06-24T06:40:06;15.50;;;7.65;;
22248;SDS011;67538;52.180;5.646;2023-06-24T06:42:34;14.02;;;8.02;;
22248;SDS011;67538;52.180;5.646;2023-06-24T06:45:01;12.05;;;7.45;;
22248;SDS011;67538;52.180;5.646;2023-06-24T06:47:28;11.17;;;7.67;;
22248;SDS011;67538;52.180;5.646;2023-06-24T06:49:55;11.55;;;7.35;;
22248;SDS011;67538;52.180;5.646;2023-06-24T06:52:22;11.45;;;7.28;;
22248;SDS011;67538;52.180;5.646;2023-06-24T06:54:51;12.20;;;7.10;;
22248;SDS011;67538;52.180;5.646;2023-06-24T06:57:18;13.75;;;7.38;;
22248;SDS011;67538;52.180;5.646;2023-06-24T06:59:45;11.82;;;7.20;;
22248;SDS011;67538;52.180;5.646;2023-06-24T07:02:12;11.77;;;6.50;;
22248;SDS011;67538;52.180;5.646;2023-06-24T07:04:39;10.70;;;6.70;;
22248;SDS011;67538;52.180;5.646;2023-06-24T07:07:06;9.93;;;6.38;;
22248;SDS011;67538;52.180;5.646;2023-06-24T07:09:33;12.02;;;6.32;;
22248;SDS011;67538;52.180;5.646;2023-06-24T07:12:02;11.90;;;6.72;;
22248;SDS011;67538;52.180;5.646;2023-06-24T07:14:30;12.70;;;7.07;;
22248;SDS011;67538;52.180;5.646;2023-06-24T07:16:57;14.45;;;7.22;;
22248;SDS011;67538;52.180;5.646;2023-06-24T07:19:24;19.63;;;7.30;;
22248;SDS011;67538;52.180;5.646;2023-06-24T07:21:51;12.13;;;6.72;;
22248;SDS011;67538;52.180;5.646;2023-06-24T07:24:18;10.68;;;6.63;;
22248;SDS011;67538;52.180;5.646;2023-06-24T07:26:45;25.45;;;7.53;;
22248;SDS011;67538;52.180;5.646;2023-06-24T07:29:14;12.63;;;6.75;;
22248;SDS011;67538;52.180;5.646;2023-06-24T07:31:41;10.80;;;6.50;;
22248;SDS011;67538;52.180;5.646;2023-06-24T07:34:08;10.20;;;6.55;;
22248;SDS011;67538;52.180;5.646;2023-06-24T07:36:35;11.73;;;6.82;;
22248;SDS011;67538;52.180;5.646;2023-06-24T07:39:02;15.68;;;7.30;;
22248;SDS011;67538;52.180;5.646;2023-06-24T07:41:30;14.95;;;7.28;;
22248;SDS011;67538;52.180;5.646;2023-06-24T07:43:58;10.40;;;7.38;;
22248;SDS011;67538;52.180;5.646;2023-06-24T07:46:27;13.65;;;7.35;;
22248;SDS011;67538;52.180;5.646;2023-06-24T07:48:55;14.65;;;7.20;;
22248;SDS011;67538;52.180;5.646;2023-06-24T07:51:22;14.10;;;7.07;;
22248;SDS011;67538;52.180;5.646;2023-06-24T07:53:49;14.27;;;7.05;;
22248;SDS011;67538;52.180;5.646;2023-06-24T07:56:16;12.77;;;6.90;;
22248;SDS011;67538;52.180;5.646;2023-06-24T07:58:43;17.95;;;6.63;;
22248;SDS011;67538;52.180;5.646;2023-06-24T08:01:11;12.35;;;7.53;;
22248;SDS011;67538;52.180;5.646;2023-06-24T08:03:39;13.90;;;7.70;;
22248;SDS011;67538;52.180;5.646;2023-06-24T08:06:06;11.25;;;6.90;;
22248;SDS011;67538;52.180;5.646;2023-06-24T08:08:34;12.20;;;6.78;;
22248;SDS011;67538;52.180;5.646;2023-06-24T08:11:02;11.38;;;6.70;;
22248;SDS011;67538;52.180;5.646;2023-06-24T08:13:29;11.63;;;7.30;;
22248;SDS011;67538;52.180;5.646;2023-06-24T08:15:56;11.82;;;7.00;;
22248;SDS011;67538;52.180;5.646;2023-06-24T08:18:23;11.35;;;7.25;;
22248;SDS011;67538;52.180;5.646;2023-06-24T08:20:52;12.00;;;7.15;;
22248;SDS011;67538;52.180;5.646;2023-06-24T08:23:19;10.55;;;6.43;;
22248;SDS011;67538;52.180;5.646;2023-06-24T08:25:46;12.43;;;6.10;;
22248;SDS011;67538;52.180;5.646;2023-06-24T08:28:14;11.55;;;6.30;;
22248;SDS011;67538;52.180;5.646;2023-06-24T08:30:41;8.75;;;6.07;;
22248;SDS011;67538;52.180;5.646;2023-06-24T08:33:08;10.90;;;5.50;;
22248;SDS011;67538;52.180;5.646;2023-06-24T08:35:35;8.55;;;5.50;;
22248;SDS011;67538;52.180;5.646;2023-06-24T08:38:04;8.50;;;5.65;;
22248;SDS011;67538;52.180;5.646;2023-06-24T08:40:31;11.40;;;5.55;;
22248;SDS011;67538;52.180;5.646;2023-06-24T08:42:58;11.07;;;5.57;;
22248;SDS011;67538;52.180;5.646;2023-06-24T08:45:25;15.55;;;5.43;;
22248;SDS011;67538;52.180;5.646;2023-06-24T08:47:52;9.30;;;6.15;;
22248;SDS011;67538;52.180;5.646;2023-06-24T08:50:20;9.95;;;5.63;;
22248;SDS011;67538;52.180;5.646;2023-06-24T08:52:51;10.55;;;5.30;;
22248;SDS011;67538;52.180;5.646;2023-06-24T08:55:22;10.50;;;5.40;;
22248;SDS011;67538;52.180;5.646;2023-06-24T08:57:50;11.77;;;5.90;;
22248;SDS011;67538;52.180;5.646;2023-06-24T09:00:18;13.30;;;5.85;;
22248;SDS011;67538;52.180;5.646;2023-06-24T09:02:45;11.70;;;4.97;;
22248;SDS011;67538;52.180;5.646;2023-06-24T09:05:12;10.93;;;5.40;;
22248;SDS011;67538;52.180;5.646;2023-06-24T09:07:39;9.43;;;5.18;;
22248;SDS011;67538;52.180;5.646;2023-06-24T09:10:07;8.25;;;4.75;;
22248;SDS011;67538;52.180;5.646;2023-06-24T09:12:36;9.10;;;4.90;;
22248;SDS011;67538;52.180;5.646;2023-06-24T09:15:03;11.98;;;5.20;;
22248;SDS011;67538;52.180;5.646;2023-06-24T09:17:31;10.25;;;4.93;;
22248;SDS011;67538;52.180;5.646;2023-06-24T09:20:03;8.20;;;4.82;;
22248;SDS011;67538;52.180;5.646;2023-06-24T09:22:31;29.80;;;5.03;;
22248;SDS011;67538;52.180;5.646;2023-06-24T09:25:00;12.73;;;5.18;;
22248;SDS011;67538;52.180;5.646;2023-06-24T09:27:30;21.45;;;5.32;;
22248;SDS011;67538;52.180;5.646;2023-06-24T09:29:59;8.77;;;5.32;;
22248;SDS011;67538;52.180;5.646;2023-06-24T09:32:29;31.52;;;6.43;;
22248;SDS011;67538;52.180;5.646;2023-06-24T09:34:57;13.60;;;5.82;;
22248;SDS011;67538;52.180;5.646;2023-06-24T09:37:24;11.60;;;6.10;;
22248;SDS011;67538;52.180;5.646;2023-06-24T09:39:56;13.27;;;6.63;;
22248;SDS011;67538;52.180;5.646;2023-06-24T09:42:23;11.43;;;6.07;;
22248;SDS011;67538;52.180;5.646;2023-06-24T09:44:53;7.25;;;5.28;;
22248;SDS011;67538;52.180;5.646;2023-06-24T09:47:22;10.63;;;6.30;;
22248;SDS011;67538;52.180;5.646;2023-06-24T09:49:52;116.75;;;9.57;;
22248;SDS011;67538;52.180;5.646;2023-06-24T09:52:19;34.08;;;6.68;;
22248;SDS011;67538;52.180;5.646;2023-06-24T09:54:50;12.25;;;5.80;;
22248;SDS011;67538;52.180;5.646;2023-06-24T09:57:17;9.32;;;5.85;;
22248;SDS011;67538;52.180;5.646;2023-06-24T09:59:49;11.93;;;6.07;;
22248;SDS011;67538;52.180;5.646;2023-06-24T10:02:17;11.02;;;6.40;;
22248;SDS011;67538;52.180;5.646;2023-06-24T10:04:46;9.25;;;6.18;;
22248;SDS011;67538;52.180;5.646;2023-06-24T10:07:14;13.73;;;6.60;;
22248;SDS011;67538;52.180;5.646;2023-06-24T10:09:42;10.00;;;5.97;;
22248;SDS011;67538;52.180;5.646;2023-06-24T10:12:09;12.40;;;6.65;;
22248;SDS011;67538;52.180;5.646;2023-06-24T10:14:37;9.77;;;6.80;;
22248;SDS011;67538;52.180;5.646;2023-06-24T10:17:04;10.40;;;6.83;;
22248;SDS011;67538;52.180;5.646;2023-06-24T10:19:37;10.43;;;6.60;;
22248;SDS011;67538;52.180;5.646;2023-06-24T10:22:08;16.60;;;6.80;;
22248;SDS011;67538;52.180;5.646;2023-06-24T10:24:37;9.82;;;6.43;;
22248;SDS011;67538;52.180;5.646;2023-06-24T10:27:07;9.20;;;6.43;;
22248;SDS011;67538;52.180;5.646;2023-06-24T10:29:35;10.38;;;6.05;;
22248;SDS011;67538;52.180;5.646;2023-06-24T10:32:04;12.35;;;6.88;;
22248;SDS011;67538;52.180;5.646;2023-06-24T10:34:33;9.18;;;6.28;;
22248;SDS011;67538;52.180;5.646;2023-06-24T10:37:01;11.32;;;6.88;;
22248;SDS011;67538;52.180;5.646;2023-06-24T10:39:42;10.53;;;6.43;;
22248;SDS011;67538;52.180;5.646;2023-06-24T10:42:25;15.32;;;6.97;;
22248;SDS011;67538;52.180;5.646;2023-06-24T10:44:53;13.85;;;6.40;;
22248;SDS011;67538;52.180;5.646;2023-06-24T10:47:21;11.88;;;7.40;;
22248;SDS011;67538;52.180;5.646;2023-06-24T10:49:49;10.50;;;6.97;;
22248;SDS011;67538;52.180;5.646;2023-06-24T10:52:17;12.03;;;6.90;;
22248;SDS011;67538;52.180;5.646;2023-06-24T10:54:48;11.27;;;7.37;;
22248;SDS011;67538;52.180;5.646;2023-06-24T10:57:20;10.02;;;7.18;;
22248;SDS011;67538;52.180;5.646;2023-06-24T10:59:49;9.98;;;6.93;;
22248;SDS011;67538;52.180;5.646;2023-06-24T11:02:16;12.85;;;6.85;;
22248;SDS011;67538;52.180;5.646;2023-06-24T11:04:45;11.05;;;7.30;;
22248;SDS011;67538;52.180;5.646;2023-06-24T11:07:12;13.43;;;7.85;;
22248;SDS011;67538;52.180;5.646;2023-06-24T11:09:40;10.73;;;6.87;;
22248;SDS011;67538;52.180;5.646;2023-06-24T11:12:10;10.02;;;7.10;;
22248;SDS011;67538;52.180;5.646;2023-06-24T11:14:38;12.13;;;7.43;;
22248;SDS011;67538;52.180;5.646;2023-06-24T11:17:05;13.30;;;8.05;;
22248;SDS011;67538;52.180;5.646;2023-06-24T11:19:33;12.85;;;7.93;;
22248;SDS011;67538;52.180;5.646;2023-06-24T11:22:04;12.90;;;8.40;;
22248;SDS011;67538;52.180;5.646;2023-06-24T11:24:32;11.13;;;7.82;;
22248;SDS011;67538;52.180;5.646;2023-06-24T11:26:59;12.30;;;7.27;;
22248;SDS011;67538;52.180;5.646;2023-06-24T11:29:29;12.52;;;7.75;;
22248;SDS011;67538;52.180;5.646;2023-06-24T11:31:57;10.90;;;7.53;;
22248;SDS011;67538;52.180;5.646;2023-06-24T11:34:25;13.40;;;7.57;;
22248;SDS011;67538;52.180;5.646;2023-06-24T11:36:52;11.75;;;7.38;;
22248;SDS011;67538;52.180;5.646;2023-06-24T11:39:20;15.70;;;7.88;;
22248;SDS011;67538;52.180;5.646;2023-06-24T11:41:48;11.20;;;7.50;;
22248;SDS011;67538;52.180;5.646;2023-06-24T11:44:17;14.77;;;7.63;;
22248;SDS011;67538;52.180;5.646;2023-06-24T11:46:46;13.45;;;7.07;;
22248;SDS011;67538;52.180;5.646;2023-06-24T11:49:14;11.85;;;7.32;;
22248;SDS011;67538;52.180;5.646;2023-06-24T11:51:47;11.57;;;7.13;;
22248;SDS011;67538;52.180;5.646;2023-06-24T11:54:15;13.55;;;7.05;;
22248;SDS011;67538;52.180;5.646;2023-06-24T11:56:48;9.60;;;6.35;;
22248;SDS011;67538;52.180;5.646;2023-06-24T11:59:17;12.37;;;6.63;;
22248;SDS011;67538;52.180;5.646;2023-06-24T12:01:45;13.98;;;7.28;;
22248;SDS011;67538;52.180;5.646;2023-06-24T12:04:18;11.40;;;6.40;;
22248;SDS011;67538;52.180;5.646;2023-06-24T12:06:45;12.80;;;6.90;;
22248;SDS011;67538;52.180;5.646;2023-06-24T12:09:12;10.82;;;7.32;;
22248;SDS011;67538;52.180;5.646;2023-06-24T12:11:41;14.20;;;7.68;;
22248;SDS011;67538;52.180;5.646;2023-06-24T12:14:08;11.02;;;7.25;;
22248;SDS011;67538;52.180;5.646;2023-06-24T12:16:35;13.47;;;7.53;;
22248;SDS011;67538;52.180;5.646;2023-06-24T12:19:04;12.32;;;7.75;;
22248;SDS011;67538;52.180;5.646;2023-06-24T12:21:31;10.88;;;7.55;;
22248;SDS011;67538;52.180;5.646;2023-06-24T12:23:58;13.10;;;7.38;;
22248;SDS011;67538;52.180;5.646;2023-06-24T12:26:25;18.80;;;7.80;;
22248;SDS011;67538;52.180;5.646;2023-06-24T12:28:53;11.98;;;6.63;;
22248;SDS011;67538;52.180;5.646;2023-06-24T12:31:21;14.00;;;6.60;;
22248;SDS011;67538;52.180;5.646;2023-06-24T12:33:48;15.23;;;7.10;;
22248;SDS011;67538;52.180;5.646;2023-06-24T12:36:18;34.85;;;7.63;;
22248;SDS011;67538;52.180;5.646;2023-06-24T12:38:46;15.43;;;7.28;;
22248;SDS011;67538;52.180;5.646;2023-06-24T12:41:13;10.07;;;6.30;;
22248;SDS011;67538;52.180;5.646;2023-06-24T12:43:40;29.17;;;7.82;;
22248;SDS011;67538;52.180;5.646;2023-06-24T12:46:07;9.85;;;6.13;;
22248;SDS011;67538;52.180;5.646;2023-06-24T12:48:34;13.98;;;7.65;;
22248;SDS011;67538;52.180;5.646;2023-06-24T12:51:01;16.52;;;8.00;;
22248;SDS011;67538;52.180;5.646;2023-06-24T12:53:30;15.20;;;7.40;;
22248;SDS011;67538;52.180;5.646;2023-06-24T12:55:57;11.98;;;7.15;;
22248;SDS011;67538;52.180;5.646;2023-06-24T12:58:24;14.18;;;6.75;;
22248;SDS011;67538;52.180;5.646;2023-06-24T13:00:52;10.45;;;6.82;;
22248;SDS011;67538;52.180;5.646;2023-06-24T13:03:19;13.47;;;7.23;;
22248;SDS011;67538;52.180;5.646;2023-06-24T13:05:46;11.33;;;6.63;;
22248;SDS011;67538;52.180;5.646;2023-06-24T13:08:13;9.45;;;6.30;;
22248;SDS011;67538;52.180;5.646;2023-06-24T13:10:42;11.88;;;6.05;;
22248;SDS011;67538;52.180;5.646;2023-06-24T13:13:09;9.07;;;5.97;;
22248;SDS011;67538;52.180;5.646;2023-06-24T13:15:36;9.52;;;5.97;;
22248;SDS011;67538;52.180;5.646;2023-06-24T13:18:03;9.60;;;5.82;;
22248;SDS011;67538;52.180;5.646;2023-06-24T13:20:31;10.15;;;6.05;;
22248;SDS011;67538;52.180;5.646;2023-06-24T13:22:58;10.52;;;5.63;;
22248;SDS011;67538;52.180;5.646;2023-06-24T13:25:25;10.18;;;6.68;;
22248;SDS011;67538;52.180;5.646;2023-06-24T13:27:53;13.02;;;6.43;;
22248;SDS011;67538;52.180;5.646;2023-06-24T13:30:21;11.40;;;5.90;;
22248;SDS011;67538;52.180;5.646;2023-06-24T13:32:48;9.15;;;5.38;;
22248;SDS011;67538;52.180;5.646;2023-06-24T13:35:15;11.17;;;6.33;;
22248;SDS011;67538;52.180;5.646;2023-06-24T13:37:42;8.70;;;5.77;;
22248;SDS011;67538;52.180;5.646;2023-06-24T13:40:10;12.23;;;5.43;;
22248;SDS011;67538;52.180;5.646;2023-06-24T13:42:37;15.10;;;6.90;;
22248;SDS011;67538;52.180;5.646;2023-06-24T13:45:06;10.32;;;6.95;;
22248;SDS011;67538;52.180;5.646;2023-06-24T13:47:34;12.85;;;6.88;;
22248;SDS011;67538;52.180;5.646;2023-06-24T13:50:02;10.38;;;6.28;;
22248;SDS011;67538;52.180;5.646;2023-06-24T13:52:30;9.82;;;6.28;;
22248;SDS011;67538;52.180;5.646;2023-06-24T13:54:58;10.45;;;6.40;;
22248;SDS011;67538;52.180;5.646;2023-06-24T13:57:25;15.50;;;6.57;;
22248;SDS011;67538;52.180;5.646;2023-06-24T13:59:52;12.93;;;6.90;;
22248;SDS011;67538;52.180;5.646;2023-06-24T14:02:21;14.57;;;6.32;;
22248;SDS011;67538;52.180;5.646;2023-06-24T14:04:48;12.02;;;6.40;;
22248;SDS011;67538;52.180;5.646;2023-06-24T14:07:15;9.77;;;5.93;;
22248;SDS011;67538;52.180;5.646;2023-06-24T14:09:42;11.38;;;6.10;;
22248;SDS011;67538;52.180;5.646;2023-06-24T14:12:09;9.13;;;5.60;;
22248;SDS011;67538;52.180;5.646;2023-06-24T14:14:37;9.18;;;5.70;;
22248;SDS011;67538;52.180;5.646;2023-06-24T14:17:05;12.25;;;7.20;;
22248;SDS011;67538;52.180;5.646;2023-06-24T14:19:36;10.55;;;6.95;;
22248;SDS011;67538;52.180;5.646;2023-06-24T14:22:04;12.27;;;6.47;;
22248;SDS011;67538;52.180;5.646;2023-06-24T14:24:32;11.00;;;6.90;;
22248;SDS011;67538;52.180;5.646;2023-06-24T14:26:59;11.15;;;6.32;;
22248;SDS011;67538;52.180;5.646;2023-06-24T14:29:26;11.60;;;6.75;;
22248;SDS011;67538;52.180;5.646;2023-06-24T14:31:53;11.52;;;5.80;;
22248;SDS011;67538;52.180;5.646;2023-06-24T14:34:20;10.90;;;6.55;;
22248;SDS011;67538;52.180;5.646;2023-06-24T14:36:49;10.80;;;5.93;;
22248;SDS011;67538;52.180;5.646;2023-06-24T14:39:16;9.70;;;6.00;;